Time;durP1;ratioP1;P1;durP2;ratioP2;P2;SDS_P1;SDS_P2;PMS_P1;PMS_P2;Temp;Humidity;BMP_temperature;BMP_pressure;BME280_temperature;BME280_humidity;BME280_pressure;Samples;Min_cycle;Max_cycle;Signal;HPM_P1;HPM_P2
2023/07/07 00:01:14;;;;;;;1.40;1.30;;;;;;;;;;6188224;23;20222;-85
2023/07/07 00:03:42;;;;;;;1.38;1.27;;;;;;;;;;6188539;23;20677;-83
2023/07/07 00:06:10;;;;;;;1.40;1.30;;;;;;;;;;6188361;23;20561;-84
2023/07/07 00:08:37;;;;;;;1.05;1.00;;;;;;;;;;6188074;23;20230;-85
2023/07/07 00:11:05;;;;;;;0.98;0.98;;;;;;;;;;6188360;23;20699;-83
2023/07/07 00:13:33;;;;;;;1.20;1.00;;;;;;;;;;6188536;23;20175;-85
2023/07/07 00:16:01;;;;;;;1.10;1.10;;;;;;;;;;6189261;23;20619;-84
2023/07/07 00:18:29;;;;;;;1.30;1.20;;;;;;;;;;6188881;23;20175;-84
2023/07/07 00:21:00;;;;;;;1.17;1.10;;;;;;;;;;6188533;23;20236;-83
2023/07/07 00:23:29;;;;;;;1.05;1.05;;;;;;;;;;6188558;23;20563;-83
2023/07/07 00:26:05;;;;;;;1.30;1.20;;;;;;;;;;6188693;23;20644;-84
2023/07/07 00:28:34;;;;;;;2.65;1.42;;;;;;;;;;6189542;23;20355;-85
2023/07/07 00:31:02;;;;;;;1.05;1.05;;;;;;;;;;6188906;23;20724;-83
2023/07/07 00:33:30;;;;;;;1.70;1.60;;;;;;;;;;6188438;23;20170;-82
2023/07/07 00:35:58;;;;;;;2.03;1.65;;;;;;;;;;6189360;23;20237;-84
2023/07/07 00:38:26;;;;;;;1.38;1.27;;;;;;;;;;6187774;23;20206;-85
2023/07/07 00:40:54;;;;;;;1.30;1.20;;;;;;;;;;6187893;23;20705;-83
2023/07/07 00:43:22;;;;;;;1.50;1.40;;;;;;;;;;6187441;23;20257;-82
2023/07/07 00:45:50;;;;;;;1.60;1.50;;;;;;;;;;6187981;23;20206;-83
2023/07/07 00:48:21;;;;;;;1.23;1.13;;;;;;;;;;6188405;23;20206;-83
2023/07/07 00:50:52;;;;;;;1.10;1.05;;;;;;;;;;6188437;23;20237;-83
2023/07/07 00:53:22;;;;;;;1.50;1.40;;;;;;;;;;6189380;23;20197;-84
2023/07/07 00:55:53;;;;;;;1.67;1.30;;;;;;;;;;6188534;23;20268;-82
2023/07/07 00:58:22;;;;;;;1.38;1.27;;;;;;;;;;6189027;23;20610;-83
2023/07/07 01:00:52;;;;;;;2.47;1.20;;;;;;;;;;6188660;23;20541;-83
2023/07/07 01:03:24;;;;;;;1.10;1.10;;;;;;;;;;6189109;23;20266;-82
2023/07/07 01:05:53;;;;;;;2.15;1.70;;;;;;;;;;6188156;23;20558;-83
2023/07/07 01:08:22;;;;;;;3.00;1.38;;;;;;;;;;6189295;23;20177;-82
2023/07/07 01:10:49;;;;;;;1.50;1.38;;;;;;;;;;6188021;23;20285;-83
2023/07/07 01:13:17;;;;;;;1.13;1.13;;;;;;;;;;6187698;23;20202;-84
2023/07/07 01:15:53;;;;;;;1.20;1.10;;;;;;;;;;6187657;23;20206;-85
2023/07/07 01:18:31;;;;;;;5.03;1.48;;;;;;;;;;6188582;23;20237;-84
2023/07/07 01:21:04;;;;;;;1.33;1.23;;;;;;;;;;6188289;23;20722;-83
2023/07/07 01:24:35;;;;;;;1.30;1.20;;;;;;;;;;6187572;23;20654;-83
2023/07/07 01:27:17;;;;;;;1.40;1.30;;;;;;;;;;6097137;23;20180;-83
2023/07/07 01:29:59;;;;;;;1.27;1.17;;;;;;;;;;6097187;23;20251;-83
2023/07/07 01:32:30;;;;;;;1.42;1.20;;;;;;;;;;6163826;23;20580;-83
2023/07/07 01:35:00;;;;;;;1.40;1.30;;;;;;;;;;6191619;23;20793;-84
2023/07/07 01:37:28;;;;;;;1.27;1.27;;;;;;;;;;6189009;23;20174;-83
2023/07/07 01:39:56;;;;;;;2.78;1.30;;;;;;;;;;6189760;23;20704;-83
2023/07/07 01:42:31;;;;;;;1.13;1.13;;;;;;;;;;6191175;23;20523;-83
2023/07/07 01:45:06;;;;;;;1.25;1.15;;;;;;;;;;6190745;23;20676;-82
2023/07/07 01:47:37;;;;;;;1.27;1.17;;;;;;;;;;6190252;23;20166;-83
2023/07/07 01:50:09;;;;;;;1.17;1.08;;;;;;;;;;6190967;23;20225;-83
2023/07/07 01:52:39;;;;;;;1.10;1.10;;;;;;;;;;6190617;23;20261;-83
2023/07/07 01:55:14;;;;;;;1.15;1.05;;;;;;;;;;6190946;23;20209;-82
2023/07/07 01:57:44;;;;;;;1.80;1.20;;;;;;;;;;6191291;23;20233;-82
2023/07/07 02:00:15;;;;;;;1.30;1.20;;;;;;;;;;6191954;23;20233;-84
2023/07/07 02:02:43;;;;;;;1.30;1.20;;;;;;;;;;6191504;23;20249;-85
2023/07/07 02:05:13;;;;;;;1.27;1.20;;;;;;;;;;6191356;23;20669;-82
2023/07/07 02:07:40;;;;;;;1.83;1.50;;;;;;;;;;6191329;23;20261;-84
2023/07/07 02:10:09;;;;;;;1.10;1.10;;;;;;;;;;6191358;23;20198;-84
2023/07/07 02:12:36;;;;;;;0.90;0.90;;;;;;;;;;6190487;23;20249;-83
2023/07/07 02:15:04;;;;;;;1.15;1.05;;;;;;;;;;6190464;23;20202;-84
2023/07/07 02:17:32;;;;;;;1.20;1.10;;;;;;;;;;6191464;23;20214;-84
2023/07/07 02:20:01;;;;;;;1.58;0.90;;;;;;;;;;6190058;23;20292;-83
2023/07/07 02:22:28;;;;;;;0.75;0.75;;;;;;;;;;6189959;23;20194;-85
2023/07/07 02:24:56;;;;;;;1.27;1.08;;;;;;;;;;6190933;23;20206;-85
2023/07/07 02:27:23;;;;;;;1.55;1.40;;;;;;;;;;6189215;23;20178;-82
2023/07/07 02:29:50;;;;;;;1.30;1.20;;;;;;;;;;6190652;23;20226;-85
2023/07/07 02:32:18;;;;;;;1.63;1.52;;;;;;;;;;6189237;23;20230;-84
2023/07/07 02:34:47;;;;;;;1.40;1.30;;;;;;;;;;6191011;23;20221;-84
2023/07/07 02:37:17;;;;;;;1.73;1.63;;;;;;;;;;6191392;23;20178;-84
2023/07/07 02:39:45;;;;;;;1.42;1.30;;;;;;;;;;6190899;23;20258;-84
2023/07/07 02:42:14;;;;;;;0.93;0.93;;;;;;;;;;6190998;23;20250;-84
2023/07/07 02:44:42;;;;;;;1.10;1.10;;;;;;;;;;6190275;23;20269;-83
2023/07/07 02:47:10;;;;;;;1.05;1.02;;;;;;;;;;6190351;23;20258;-85
2023/07/07 02:49:38;;;;;;;0.90;0.90;;;;;;;;;;6190409;23;20254;-84
2023/07/07 02:52:07;;;;;;;1.02;1.02;;;;;;;;;;6188792;23;20245;-83
2023/07/07 02:54:36;;;;;;;0.90;0.90;;;;;;;;;;6189859;23;20257;-84
2023/07/07 02:57:05;;;;;;;1.00;1.00;;;;;;;;;;6190991;23;20209;-83
2023/07/07 02:59:32;;;;;;;1.20;1.20;;;;;;;;;;6189650;23;20249;-83
2023/07/07 03:02:00;;;;;;;0.80;0.80;;;;;;;;;;6190634;23;20209;-84
2023/07/07 03:04:27;;;;;;;0.90;0.90;;;;;;;;;;6190193;23;20225;-83
2023/07/07 03:06:55;;;;;;;0.90;0.90;;;;;;;;;;6190539;23;20257;-83
2023/07/07 03:09:22;;;;;;;1.00;1.00;;;;;;;;;;6188107;23;20820;-83
2023/07/07 03:11:51;;;;;;;0.85;0.85;;;;;;;;;;6187356;23;21020;-83
2023/07/07 03:14:19;;;;;;;0.85;0.85;;;;;;;;;;6187752;23;20265;-84
2023/07/07 03:16:51;;;;;;;0.90;0.90;;;;;;;;;;6187570;23;20194;-83
2023/07/07 03:19:20;;;;;;;1.42;1.40;;;;;;;;;;6187535;23;20162;-83
2023/07/07 03:21:47;;;;;;;2.00;1.00;;;;;;;;;;6187438;23;20194;-83
2023/07/07 03:24:16;;;;;;;1.52;1.42;;;;;;;;;;6187793;23;20216;-83
2023/07/07 03:26:44;;;;;;;1.10;1.10;;;;;;;;;;6187884;23;20709;-83
2023/07/07 03:29:13;;;;;;;1.38;1.27;;;;;;;;;;6186994;23;20254;-84
2023/07/07 03:31:40;;;;;;;1.45;1.30;;;;;;;;;;6187216;23;20209;-84
2023/07/07 03:34:08;;;;;;;1.20;1.20;;;;;;;;;;6185989;23;20262;-83
2023/07/07 03:36:37;;;;;;;1.40;1.30;;;;;;;;;;6187569;23;20217;-83
2023/07/07 03:39:05;;;;;;;1.30;1.25;;;;;;;;;;6187705;23;20193;-83
2023/07/07 03:41:33;;;;;;;1.10;1.10;;;;;;;;;;6186280;23;20531;-83
2023/07/07 03:44:00;;;;;;;1.05;1.05;;;;;;;;;;6187685;23;20209;-84
2023/07/07 03:46:30;;;;;;;2.13;1.92;;;;;;;;;;6187884;23;20410;-84
2023/07/07 03:48:59;;;;;;;1.30;1.20;;;;;;;;;;6186865;23;20514;-84
2023/07/07 03:51:34;;;;;;;1.27;1.20;;;;;;;;;;6187364;23;20815;-83
2023/07/07 03:54:01;;;;;;;1.60;1.50;;;;;;;;;;6186900;23;20221;-82
2023/07/07 03:56:29;;;;;;;4.60;2.50;;;;;;;;;;6187120;23;20218;-84
2023/07/07 03:58:56;;;;;;;1.60;1.50;;;;;;;;;;6186851;23;20620;-83
2023/07/07 04:01:24;;;;;;;0.95;0.95;;;;;;;;;;6186081;23;20218;-82
2023/07/07 04:03:53;;;;;;;1.00;1.00;;;;;;;;;;6186967;23;20677;-84
2023/07/07 04:06:21;;;;;;;0.93;0.93;;;;;;;;;;6186503;23;20687;-84
2023/07/07 04:08:48;;;;;;;0.80;0.80;;;;;;;;;;6186935;23;20181;-84
2023/07/07 04:11:19;;;;;;;1.05;1.00;;;;;;;;;;6185779;23;20231;-83
2023/07/07 04:13:47;;;;;;;0.75;0.75;;;;;;;;;;6186309;23;20186;-82
2023/07/07 04:16:18;;;;;;;1.23;1.10;;;;;;;;;;6187109;23;20582;-83
2023/07/07 04:18:47;;;;;;;1.27;1.20;;;;;;;;;;6185592;23;20186;-82
2023/07/07 04:21:19;;;;;;;1.23;1.20;;;;;;;;;;6186625;23;20236;-83
2023/07/07 04:23:49;;;;;;;1.33;1.23;;;;;;;;;;6186910;23;20159;-82
2023/07/07 04:26:17;;;;;;;1.10;1.10;;;;;;;;;;6186903;23;20257;-83
2023/07/07 04:28:45;;;;;;;1.30;1.30;;;;;;;;;;6186403;23;20541;-84
2023/07/07 04:31:14;;;;;;;1.50;1.40;;;;;;;;;;6185836;23;20229;-83
2023/07/07 04:33:42;;;;;;;1.42;1.33;;;;;;;;;;6186571;23;20198;-83
2023/07/07 04:36:13;;;;;;;1.73;1.30;;;;;;;;;;6185942;23;20787;-83
2023/07/07 04:38:42;;;;;;;1.55;1.45;;;;;;;;;;6186667;23;20162;-84
2023/07/07 04:41:13;;;;;;;0.95;0.95;;;;;;;;;;6186168;23;20194;-84
2023/07/07 04:43:43;;;;;;;1.45;1.35;;;;;;;;;;6187001;23;20174;-83
2023/07/07 04:46:14;;;;;;;1.38;1.27;;;;;;;;;;6186938;23;20174;-84
2023/07/07 04:48:41;;;;;;;3.08;1.55;;;;;;;;;;6186727;23;20322;-85
2023/07/07 04:51:11;;;;;;;1.30;1.20;;;;;;;;;;6186597;23;20209;-84
2023/07/07 04:53:41;;;;;;;1.27;1.17;;;;;;;;;;6186372;23;20283;-83
2023/07/07 04:56:10;;;;;;;2.08;1.63;;;;;;;;;;6185762;23;20213;-83
2023/07/07 04:58:40;;;;;;;2.47;1.20;;;;;;;;;;6186568;23;20182;-84
2023/07/07 05:01:08;;;;;;;1.38;1.10;;;;;;;;;;6185578;23;20256;-83
2023/07/07 05:03:37;;;;;;;1.17;1.15;;;;;;;;;;6186645;23;20253;-84
2023/07/07 05:06:05;;;;;;;1.10;1.10;;;;;;;;;;6186320;23;20202;-84
2023/07/07 05:08:35;;;;;;;1.15;1.15;;;;;;;;;;6187277;23;20210;-84
2023/07/07 05:11:04;;;;;;;1.50;1.40;;;;;;;;;;6188119;23;20277;-83
2023/07/07 05:13:32;;;;;;;1.45;1.35;;;;;;;;;;6189153;23;20226;-82
2023/07/07 05:16:02;;;;;;;1.45;1.30;;;;;;;;;;6189498;23;20174;-83
2023/07/07 05:18:29;;;;;;;1.50;1.40;;;;;;;;;;6189700;23;20516;-83
2023/07/07 05:20:56;;;;;;;1.65;1.40;;;;;;;;;;6189268;23;20665;-83
2023/07/07 05:23:24;;;;;;;1.70;1.60;;;;;;;;;;6189443;23;20610;-83
2023/07/07 05:25:52;;;;;;;1.30;1.30;;;;;;;;;;6188324;23;20491;-83
2023/07/07 05:28:22;;;;;;;1.33;1.20;;;;;;;;;;6188709;23;20249;-83
2023/07/07 05:30:50;;;;;;;1.83;1.65;;;;;;;;;;6189406;23;20217;-84
2023/07/07 05:33:17;;;;;;;1.73;1.60;;;;;;;;;;6187878;23;20233;-84
2023/07/07 05:35:49;;;;;;;1.23;1.10;;;;;;;;;;6188944;23;20213;-84
2023/07/07 05:38:17;;;;;;;1.30;1.23;;;;;;;;;;6189486;23;20249;-83
2023/07/07 05:40:46;;;;;;;1.30;1.20;;;;;;;;;;6188897;23;20669;-85
2023/07/07 05:43:13;;;;;;;1.55;1.38;;;;;;;;;;6190292;23;20175;-85
2023/07/07 05:45:42;;;;;;;1.35;1.25;;;;;;;;;;6187549;23;20253;-85
2023/07/07 05:48:11;;;;;;;1.33;1.25;;;;;;;;;;6189356;23;20257;-84
2023/07/07 05:50:41;;;;;;;1.73;1.63;;;;;;;;;;6188270;23;20226;-85
2023/07/07 05:53:09;;;;;;;1.88;1.77;;;;;;;;;;6187392;23;20193;-85
2023/07/07 05:55:37;;;;;;;2.17;1.70;;;;;;;;;;6188875;23;20265;-84
2023/07/07 05:58:06;;;;;;;1.45;1.35;;;;;;;;;;6188459;23;20660;-84
2023/07/07 06:00:35;;;;;;;1.50;1.40;;;;;;;;;;6188856;23;20636;-84
2023/07/07 06:03:04;;;;;;;1.85;1.55;;;;;;;;;;6188031;23;20250;-86
2023/07/07 06:05:31;;;;;;;1.60;1.50;;;;;;;;;;6189544;23;20678;-85
2023/07/07 06:07:59;;;;;;;1.67;1.58;;;;;;;;;;6190571;23;20261;-86
2023/07/07 06:10:26;;;;;;;2.20;1.98;;;;;;;;;;6189176;23;20190;-84
2023/07/07 06:12:54;;;;;;;2.65;1.52;;;;;;;;;;6189637;23;20179;-86
2023/07/07 06:15:22;;;;;;;3.10;1.90;;;;;;;;;;6189286;23;20534;-85
2023/07/07 06:17:50;;;;;;;1.75;1.65;;;;;;;;;;6191129;23;20202;-85
2023/07/07 06:20:19;;;;;;;3.35;1.67;;;;;;;;;;6190420;23;20194;-87
2023/07/07 06:22:46;;;;;;;3.08;2.25;;;;;;;;;;6190443;23;20178;-87
2023/07/07 06:25:14;;;;;;;1.50;1.40;;;;;;;;;;6191885;23;20175;-85
2023/07/07 06:27:41;;;;;;;1.73;1.63;;;;;;;;;;6191468;23;20254;-86
2023/07/07 06:30:10;;;;;;;2.00;1.90;;;;;;;;;;6191136;23;20199;-84
2023/07/07 06:32:38;;;;;;;1.95;1.85;;;;;;;;;;6192204;23;20209;-84
2023/07/07 06:35:05;;;;;;;3.95;1.90;;;;;;;;;;6191623;23;20225;-84
2023/07/07 06:37:34;;;;;;;1.90;1.75;;;;;;;;;;6192776;23;20205;-86
2023/07/07 06:40:02;;;;;;;2.38;2.17;;;;;;;;;;6188869;23;20199;-86
2023/07/07 06:42:30;;;;;;;3.83;2.13;;;;;;;;;;6187505;23;20250;-86
2023/07/07 06:44:57;;;;;;;2.97;1.70;;;;;;;;;;6189364;23;20213;-86
2023/07/07 06:47:24;;;;;;;2.13;1.92;;;;;;;;;;6189468;23;20201;-86
2023/07/07 06:49:52;;;;;;;1.92;1.80;;;;;;;;;;6187789;23;20233;-86
2023/07/07 06:52:19;;;;;;;2.25;2.05;;;;;;;;;;6187834;23;20573;-87
2023/07/07 06:54:48;;;;;;;1.83;1.70;;;;;;;;;;6187420;23;20277;-86
2023/07/07 06:57:15;;;;;;;1.67;1.58;;;;;;;;;;6187455;23;20198;-85
2023/07/07 06:59:43;;;;;;;1.83;1.73;;;;;;;;;;6186930;23;20184;-86
2023/07/07 07:02:13;;;;;;;1.80;1.70;;;;;;;;;;6187582;23;20673;-87
2023/07/07 07:04:40;;;;;;;2.83;2.30;;;;;;;;;;6188571;23;20178;-85
2023/07/07 07:07:09;;;;;;;2.35;2.08;;;;;;;;;;6187878;23;20507;-87
2023/07/07 07:09:37;;;;;;;1.65;1.55;;;;;;;;;;6188890;23;20208;-87
2023/07/07 07:12:08;;;;;;;1.75;1.60;;;;;;;;;;6187631;23;20571;-87
2023/07/07 07:14:35;;;;;;;2.05;1.92;;;;;;;;;;6189814;23;20217;-87
2023/07/07 07:17:02;;;;;;;2.10;1.90;;;;;;;;;;6188945;23;20209;-87
2023/07/07 07:19:30;;;;;;;1.80;1.70;;;;;;;;;;6188490;23;20206;-87
2023/07/07 07:21:57;;;;;;;2.08;1.95;;;;;;;;;;6188595;23;20182;-87
2023/07/07 07:24:25;;;;;;;2.15;1.95;;;;;;;;;;6189374;23;20249;-88
2023/07/07 07:26:52;;;;;;;2.67;2.47;;;;;;;;;;6188092;23;20214;-86
2023/07/07 07:29:21;;;;;;;2.10;1.90;;;;;;;;;;6188948;23;20641;-85
2023/07/07 07:31:49;;;;;;;6.72;2.05;;;;;;;;;;6189684;23;20583;-84
2023/07/07 07:34:26;;;;;;;2.25;2.10;;;;;;;;;;6188473;23;20277;-86
2023/07/07 07:36:55;;;;;;;2.90;2.70;;;;;;;;;;6187415;23;20176;-85
2023/07/07 07:39:23;;;;;;;3.35;3.05;;;;;;;;;;6187470;23;20171;-87
2023/07/07 07:41:53;;;;;;;2.10;1.90;;;;;;;;;;6187034;23;20194;-86
2023/07/07 07:44:23;;;;;;;4.50;2.35;;;;;;;;;;6186264;23;20249;-86
2023/07/07 07:46:55;;;;;;;1.92;1.83;;;;;;;;;;6186244;23;20206;-86
2023/07/07 07:49:23;;;;;;;3.42;2.13;;;;;;;;;;6187328;23;20169;-86
2023/07/07 07:51:50;;;;;;;3.10;1.83;;;;;;;;;;6186480;23;20197;-86
2023/07/07 07:54:19;;;;;;;3.15;1.95;;;;;;;;;;6186967;23;20234;-87
2023/07/07 07:56:47;;;;;;;1.70;1.60;;;;;;;;;;6187738;23;20159;-86
2023/07/07 07:59:15;;;;;;;1.90;1.80;;;;;;;;;;6187301;23;20261;-86
2023/07/07 08:01:44;;;;;;;1.80;1.70;;;;;;;;;;6187164;23;20281;-85
2023/07/07 08:04:12;;;;;;;2.17;1.98;;;;;;;;;;6186562;23;20202;-87
2023/07/07 08:06:39;;;;;;;1.50;1.40;;;;;;;;;;6186521;23;20206;-83
2023/07/07 08:09:07;;;;;;;2.45;1.67;;;;;;;;;;6185441;23;20181;-86
2023/07/07 08:11:55;;;;;;;2.60;1.88;;;;;;;;;;6187383;23;20229;-86
2023/07/07 08:14:30;;;;;;;7.53;1.95;;;;;;;;;;6186606;23;20198;-86
2023/07/07 08:17:02;;;;;;;2.05;1.95;;;;;;;;;;6186914;23;20158;-85
2023/07/07 08:19:31;;;;;;;2.72;1.58;;;;;;;;;;6186642;23;20163;-87
2023/07/07 08:21:59;;;;;;;1.70;1.60;;;;;;;;;;6185663;23;20524;-86
2023/07/07 08:24:28;;;;;;;1.98;1.88;;;;;;;;;;6185521;23;20174;-87
2023/07/07 08:26:55;;;;;;;1.60;1.50;;;;;;;;;;6185858;23;20696;-87
2023/07/07 08:29:23;;;;;;;2.00;1.85;;;;;;;;;;6185484;23;20175;-87
2023/07/07 08:31:50;;;;;;;1.50;1.40;;;;;;;;;;6185729;23;20225;-86
2023/07/07 08:34:20;;;;;;;2.42;2.22;;;;;;;;;;6184367;23;20277;-86
2023/07/07 08:36:48;;;;;;;1.77;1.67;;;;;;;;;;6186001;23;20536;-88
2023/07/07 08:39:19;;;;;;;1.55;1.45;;;;;;;;;;6185871;23;20202;-87
2023/07/07 08:41:51;;;;;;;1.58;1.48;;;;;;;;;;6185663;23;20233;-87
2023/07/07 08:44:25;;;;;;;1.17;1.08;;;;;;;;;;6185756;23;20778;-87
2023/07/07 08:47:11;;;;;;;2.15;2.05;;;;;;;;;;6185379;23;20528;-88
2023/07/07 08:49:51;;;;;;;1.50;1.40;;;;;;;;;;6184943;23;20174;-86
2023/07/07 08:52:33;;;;;;;1.65;1.55;;;;;;;;;;6184036;23;20186;-86
2023/07/07 08:55:14;;;;;;;2.95;2.08;;;;;;;;;;6185003;23;20554;-88
2023/07/07 08:57:49;;;;;;;1.65;1.55;;;;;;;;;;6184925;23;20158;-87
2023/07/07 09:00:24;;;;;;;1.98;1.75;;;;;;;;;;6184879;23;20272;-86
2023/07/07 09:03:08;;;;;;;3.97;1.77;;;;;;;;;;6184362;23;20234;-89
2023/07/07 09:05:46;;;;;;;1.60;1.50;;;;;;;;;;6184435;23;20241;-87
2023/07/07 09:08:20;;;;;;;1.98;1.80;;;;;;;;;;6185347;23;20163;-87
2023/07/07 09:10:56;;;;;;;1.48;1.38;;;;;;;;;;6185159;23;20226;-85
2023/07/07 09:13:27;;;;;;;1.50;1.40;;;;;;;;;;6182805;23;20186;-87
2023/07/07 09:16:19;;;;;;;1.88;1.77;;;;;;;;;;6187969;23;20186;-86
2023/07/07 09:18:52;;;;;;;1.65;1.55;;;;;;;;;;6185350;23;20654;-89
2023/07/07 09:21:29;;;;;;;1.48;1.38;;;;;;;;;;6185948;23;20202;-87
2023/07/07 09:24:04;;;;;;;1.88;1.65;;;;;;;;;;6185120;23;20170;-87
2023/07/07 09:26:34;;;;;;;1.73;1.50;;;;;;;;;;6184934;23;20170;-85
2023/07/07 09:29:08;;;;;;;1.95;1.83;;;;;;;;;;6185465;23;20257;-85
2023/07/07 09:31:41;;;;;;;1.50;1.40;;;;;;;;;;6185964;23;20194;-88
2023/07/07 09:34:12;;;;;;;1.92;1.73;;;;;;;;;;6186042;23;20158;-85
2023/07/07 09:36:49;;;;;;;1.55;1.45;;;;;;;;;;6187066;23;20225;-85
2023/07/07 09:39:44;;;;;;;1.50;1.40;;;;;;;;;;6187551;23;20161;-89
2023/07/07 09:42:37;;;;;;;1.42;1.33;;;;;;;;;;6188687;23;20163;-86
2023/07/07 09:45:17;;;;;;;1.20;1.15;;;;;;;;;;6186921;23;20190;-86
2023/07/07 09:47:54;;;;;;;1.60;1.50;;;;;;;;;;6186484;23;20241;-87
2023/07/07 09:50:27;;;;;;;1.42;1.33;;;;;;;;;;6189329;23;20594;-85
2023/07/07 09:53:01;;;;;;;2.20;1.60;;;;;;;;;;6191486;23;20193;-86
2023/07/07 09:55:31;;;;;;;3.33;1.45;;;;;;;;;;6190342;23;20255;-84
2023/07/07 09:58:03;;;;;;;1.50;1.40;;;;;;;;;;6190408;23;20222;-84
2023/07/07 10:00:32;;;;;;;1.45;1.30;;;;;;;;;;6190682;23;20228;-86
2023/07/07 10:03:00;;;;;;;1.20;1.10;;;;;;;;;;6190733;23;20204;-86
2023/07/07 10:05:34;;;;;;;1.63;1.52;;;;;;;;;;6190365;23;20645;-84
2023/07/07 10:08:05;;;;;;;1.50;1.40;;;;;;;;;;6190141;23;20166;-85
2023/07/07 10:10:33;;;;;;;1.45;1.35;;;;;;;;;;6188937;23;20205;-87
2023/07/07 10:13:00;;;;;;;1.33;1.27;;;;;;;;;;6189253;23;20179;-85
2023/07/07 10:15:49;;;;;;;2.33;1.85;;;;;;;;;;6186777;23;20202;-85
2023/07/07 10:18:21;;;;;;;1.40;1.30;;;;;;;;;;6190139;23;20242;-85
2023/07/07 10:20:48;;;;;;;1.30;1.20;;;;;;;;;;6189644;23;20588;-84
2023/07/07 10:23:17;;;;;;;1.60;1.50;;;;;;;;;;6188418;23;20520;-86
2023/07/07 10:25:46;;;;;;;1.50;1.40;;;;;;;;;;6186709;23;20198;-87
2023/07/07 10:28:18;;;;;;;1.60;1.50;;;;;;;;;;6187537;23;20174;-87
2023/07/07 10:30:46;;;;;;;1.73;1.63;;;;;;;;;;6186277;23;20281;-86
2023/07/07 10:33:17;;;;;;;2.42;1.40;;;;;;;;;;6186071;23;20261;-88
2023/07/07 10:35:44;;;;;;;1.70;1.55;;;;;;;;;;6186619;23;20241;-86
2023/07/07 10:38:13;;;;;;;1.38;1.27;;;;;;;;;;6186471;23;20209;-86
2023/07/07 10:40:45;;;;;;;2.30;2.10;;;;;;;;;;6186801;23;20226;-85
2023/07/07 10:43:14;;;;;;;2.42;1.70;;;;;;;;;;6186198;23;20217;-87
2023/07/07 10:45:47;;;;;;;2.75;1.83;;;;;;;;;;6186605;23;20257;-86
2023/07/07 10:48:15;;;;;;;2.15;1.98;;;;;;;;;;6186936;23;20155;-91
2023/07/07 10:50:55;;;;;;;1.58;1.48;;;;;;;;;;6186708;23;20225;-85
2023/07/07 10:53:40;;;;;;;3.35;1.80;;;;;;;;;;6188407;23;20210;-86
2023/07/07 10:56:19;;;;;;;1.10;1.10;;;;;;;;;;6185992;23;20574;-87
2023/07/07 10:59:23;;;;;;;1.52;1.42;;;;;;;;;;6186528;23;20163;-88
2023/07/07 11:02:03;;;;;;;1.48;1.38;;;;;;;;;;6185440;23;20200;-89
2023/07/07 11:04:59;;;;;;;1.52;1.42;;;;;;;;;;6185794;23;20260;-88
2023/07/07 11:07:39;;;;;;;1.85;1.70;;;;;;;;;;6172889;23;20513;-91
2023/07/07 11:10:24;;;;;;;1.55;1.45;;;;;;;;;;6188233;23;20673;-87
2023/07/07 11:13:03;;;;;;;1.38;1.27;;;;;;;;;;6186155;23;20174;-87
2023/07/07 11:15:38;;;;;;;1.80;1.70;;;;;;;;;;6185621;23;20182;-87
2023/07/07 11:18:28;;;;;;;1.25;1.25;;;;;;;;;;6186384;23;20696;-89
2023/07/07 11:21:10;;;;;;;1.65;1.50;;;;;;;;;;6186607;23;20287;-88
2023/07/07 11:24:09;;;;;;;1.48;1.38;;;;;;;;;;6185948;23;20241;-88
2023/07/07 11:26:52;;;;;;;1.13;1.13;;;;;;;;;;6188478;23;20163;-89
2023/07/07 11:29:32;;;;;;;1.80;1.70;;;;;;;;;;6186163;23;20239;-90
2023/07/07 11:32:11;;;;;;;1.15;1.13;;;;;;;;;;6186420;23;20159;-90
2023/07/07 11:35:18;;;;;;;1.40;1.30;;;;;;;;;;6185936;23;20166;-90
2023/07/07 11:38:04;;;;;;;1.52;1.42;;;;;;;;;;6186837;23;20660;-90
2023/07/07 11:40:59;;;;;;;1.50;1.40;;;;;;;;;;6186146;23;20276;-90
2023/07/07 11:44:03;;;;;;;2.13;1.52;;;;;;;;;;6186399;23;20165;-90
2023/07/07 11:46:49;;;;;;;2.42;1.80;;;;;;;;;;6186018;23;20176;-88
2023/07/07 11:49:33;;;;;;;1.40;1.30;;;;;;;;;;6185934;23;20194;-88
2023/07/07 11:52:13;;;;;;;2.17;1.77;;;;;;;;;;6186478;23;20193;-89
2023/07/07 11:55:01;;;;;;;1.45;1.35;;;;;;;;;;6186538;23;20261;-91
2023/07/07 11:57:41;;;;;;;5.68;1.98;;;;;;;;;;6185758;23;20209;-88
2023/07/07 12:00:29;;;;;;;1.50;1.40;;;;;;;;;;6186852;23;20222;-88
2023/07/07 12:03:36;;;;;;;1.50;1.40;;;;;;;;;;6185964;23;20186;-87
2023/07/07 12:06:10;;;;;;;1.75;1.65;;;;;;;;;;6185878;23;20180;-88
2023/07/07 12:08:44;;;;;;;1.60;1.50;;;;;;;;;;6185369;23;20632;-88
2023/07/07 12:11:14;;;;;;;1.60;1.50;;;;;;;;;;6184806;23;20198;-87
2023/07/07 12:14:05;;;;;;;1.30;1.27;;;;;;;;;;6184866;23;20243;-87
2023/07/07 12:16:32;;;;;;;1.17;1.15;;;;;;;;;;6185325;23;20221;-87
2023/07/07 12:19:17;;;;;;;1.70;1.60;;;;;;;;;;6185261;23;20210;-86
2023/07/07 12:21:46;;;;;;;1.58;1.48;;;;;;;;;;6184973;23;20198;-88
2023/07/07 12:24:20;;;;;;;2.92;1.27;;;;;;;;;;6184768;23;20253;-88
2023/07/07 12:26:58;;;;;;;1.52;1.42;;;;;;;;;;6185254;23;20231;-89
2023/07/07 12:29:26;;;;;;;6.57;1.90;;;;;;;;;;6185247;23;20232;-88
2023/07/07 12:31:54;;;;;;;1.88;1.52;;;;;;;;;;6185608;23;20201;-88
2023/07/07 12:34:39;;;;;;;1.45;1.45;;;;;;;;;;6185059;23;20614;-88
2023/07/07 12:37:11;;;;;;;2.00;1.67;;;;;;;;;;6185754;23;20182;-84
2023/07/07 12:39:49;;;;;;;1.60;1.50;;;;;;;;;;6185292;23;20167;-86
2023/07/07 12:42:17;;;;;;;1.55;1.45;;;;;;;;;;6184413;23;20159;-86
2023/07/07 12:44:45;;;;;;;2.17;1.52;;;;;;;;;;6184492;23;20206;-87
2023/07/07 12:47:27;;;;;;;1.10;1.10;;;;;;;;;;6184448;23;20181;-87
2023/07/07 12:50:02;;;;;;;1.30;1.20;;;;;;;;;;6184869;23;20275;-87
2023/07/07 12:52:43;;;;;;;1.20;1.20;;;;;;;;;;6185096;23;20158;-83
2023/07/07 12:55:26;;;;;;;1.20;1.20;;;;;;;;;;6185503;23;20182;-87
2023/07/07 12:58:34;;;;;;;1.73;1.63;;;;;;;;;;6184900;23;20269;-87
2023/07/07 13:01:12;;;;;;;1.67;1.58;;;;;;;;;;6064649;23;20196;-86
2023/07/07 13:03:59;;;;;;;1.50;1.40;;;;;;;;;;6165425;23;20276;-86
2023/07/07 13:06:38;;;;;;;1.30;1.20;;;;;;;;;;6184913;23;20165;-86
2023/07/07 13:09:23;;;;;;;1.23;1.20;;;;;;;;;;6184821;23;20162;-86
2023/07/07 13:11:53;;;;;;;1.48;1.38;;;;;;;;;;6184790;23;20233;-87
2023/07/07 13:14:34;;;;;;;1.60;1.50;;;;;;;;;;6184683;23;20511;-85
2023/07/07 13:17:06;;;;;;;1.40;1.30;;;;;;;;;;6188914;23;20274;-86
2023/07/07 13:19:35;;;;;;;1.83;1.55;;;;;;;;;;6183951;23;20174;-88
2023/07/07 13:22:11;;;;;;;1.70;1.60;;;;;;;;;;6183069;23;20174;-87
2023/07/07 13:24:42;;;;;;;1.58;1.48;;;;;;;;;;6183981;23;20158;-87
2023/07/07 13:27:18;;;;;;;2.22;1.30;;;;;;;;;;6185708;23;20249;-87
2023/07/07 13:29:46;;;;;;;1.65;1.38;;;;;;;;;;6185062;23;20226;-86
2023/07/07 13:32:28;;;;;;;1.42;1.33;;;;;;;;;;6184223;23;20178;-87
2023/07/07 13:34:57;;;;;;;1.50;1.40;;;;;;;;;;6186354;23;20245;-87
2023/07/07 13:37:26;;;;;;;1.60;1.50;;;;;;;;;;6186455;23;20280;-86
2023/07/07 13:39:54;;;;;;;1.40;1.30;;;;;;;;;;6186845;23;20194;-87
2023/07/07 13:42:26;;;;;;;1.25;1.23;;;;;;;;;;6188960;23;20269;-87
2023/07/07 13:45:02;;;;;;;1.55;1.45;;;;;;;;;;6189371;23;20241;-87
2023/07/07 13:47:31;;;;;;;1.50;1.40;;;;;;;;;;6189443;23;20170;-87
2023/07/07 13:50:01;;;;;;;2.55;1.60;;;;;;;;;;6188890;23;20194;-86
2023/07/07 13:52:33;;;;;;;1.40;1.35;;;;;;;;;;6188880;23;20174;-87
2023/07/07 13:55:01;;;;;;;1.40;1.30;;;;;;;;;;6188411;23;20265;-86
2023/07/07 13:57:31;;;;;;;1.70;1.60;;;;;;;;;;6188562;23;20174;-89
2023/07/07 14:00:00;;;;;;;1.95;1.85;;;;;;;;;;6189147;23;20230;-88
2023/07/07 14:02:28;;;;;;;1.77;1.67;;;;;;;;;;6189355;23;20198;-88
2023/07/07 14:05:00;;;;;;;1.58;1.48;;;;;;;;;;6188962;23;20171;-86
2023/07/07 14:07:29;;;;;;;1.52;1.42;;;;;;;;;;6188550;23;20241;-86
2023/07/07 14:09:56;;;;;;;1.70;1.60;;;;;;;;;;6188380;23;20194;-86
2023/07/07 14:12:28;;;;;;;1.70;1.60;;;;;;;;;;6187317;23;20180;-86
2023/07/07 14:14:58;;;;;;;1.95;1.75;;;;;;;;;;6188726;23;20159;-87
2023/07/07 14:17:31;;;;;;;1.77;1.65;;;;;;;;;;6189037;23;20252;-89
2023/07/07 14:20:01;;;;;;;1.58;1.48;;;;;;;;;;6188426;23;20592;-86
2023/07/07 14:22:32;;;;;;;2.05;1.95;;;;;;;;;;6188064;23;20170;-88
2023/07/07 14:25:00;;;;;;;1.83;1.73;;;;;;;;;;6188135;23;20257;-87
2023/07/07 14:27:29;;;;;;;1.70;1.60;;;;;;;;;;6188257;23;20197;-87
2023/07/07 14:29:57;;;;;;;1.40;1.30;;;;;;;;;;6188423;23;20213;-87
2023/07/07 14:32:33;;;;;;;1.52;1.42;;;;;;;;;;6188357;23;20253;-86
2023/07/07 14:35:04;;;;;;;1.70;1.63;;;;;;;;;;6188531;23;20241;-87
2023/07/07 14:37:38;;;;;;;1.58;1.42;;;;;;;;;;6188754;23;20210;-86
2023/07/07 14:40:30;;;;;;;1.88;1.60;;;;;;;;;;6188384;23;20577;-86
2023/07/07 14:42:59;;;;;;;1.58;1.48;;;;;;;;;;6188333;23;20186;-86
2023/07/07 14:45:30;;;;;;;3.60;1.77;;;;;;;;;;6188178;23;20182;-86
2023/07/07 14:47:59;;;;;;;1.50;1.40;;;;;;;;;;6189171;23;20218;-88
2023/07/07 14:50:29;;;;;;;1.50;1.40;;;;;;;;;;6187403;23;20533;-87
2023/07/07 14:53:02;;;;;;;2.45;1.67;;;;;;;;;;6186765;23;20186;-87
2023/07/07 14:55:31;;;;;;;1.52;1.42;;;;;;;;;;6187280;23;20205;-87
2023/07/07 14:58:03;;;;;;;1.67;1.58;;;;;;;;;;6187854;23;20229;-87
2023/07/07 15:00:37;;;;;;;1.60;1.50;;;;;;;;;;6188211;23;20218;-86
2023/07/07 15:03:30;;;;;;;1.92;1.42;;;;;;;;;;6188227;23;20155;-88
2023/07/07 15:06:12;;;;;;;1.48;1.38;;;;;;;;;;6186453;23;20151;-87
2023/07/07 15:08:46;;;;;;;1.73;1.63;;;;;;;;;;6188843;23;20262;-88
2023/07/07 15:11:14;;;;;;;1.65;1.55;;;;;;;;;;6188479;23;20209;-87
2023/07/07 15:13:42;;;;;;;2.45;2.15;;;;;;;;;;6186905;23;20669;-87